Point, Louisiana
Current Conditions -  °F | °C
As of 2:35 PM on Thursday 29 Jan 2015 (Local Time) from KRSN Reporting Station
Clear Clear  
Wind Chill: 72°   Ceiling: Unl
Heat Index: 72°   Visibility: 10mi
Dew Point: 51°   Wind: 7mph
Humidity: 49%   Direction: 290°WNW
Pressure: 30.18"   Gusts: NA
Location:  32.6533°N, 92.3683°W
Report Text: KRSN 292035Z AUTO 29006KT 10SM CLR 22/11 A3018 RMK AO2 T02200107
Loading
Personal Weather Stations






























Interactive Weather Map New forecast layout! Learn more

10-Day Weather Forecast

Advertisements
Track Severe Weather on mobile